createdAt,value
2022-12-18T00:00:12.708Z,6.22
2022-12-18T00:03:18.242Z,5.82
2022-12-18T00:06:21.418Z,6.45
2022-12-18T00:09:24.788Z,5.73
2022-12-18T00:12:29.883Z,6.50
2022-12-18T00:15:37.886Z,6.13
2022-12-18T00:18:41.946Z,6.50
2022-12-18T00:21:45.268Z,5.53
2022-12-18T00:24:47.929Z,5.67
2022-12-18T00:27:50.758Z,5.43
2022-12-18T00:31:07.858Z,6.55
2022-12-18T00:34:14.177Z,5.43
2022-12-18T00:37:20.075Z,5.85
2022-12-18T00:40:27.092Z,5.80
2022-12-18T00:43:30.119Z,5.77
2022-12-18T00:46:33.279Z,6.18
2022-12-18T00:49:35.975Z,5.47
2022-12-18T00:52:38.779Z,5.35
2022-12-18T00:55:42.418Z,5.67
2022-12-18T00:58:45.453Z,5.73
2022-12-18T01:01:48.939Z,5.68
2022-12-18T01:04:51.854Z,6.20
2022-12-18T01:07:57.116Z,5.20
2022-12-18T01:10:59.785Z,6.10
2022-12-18T01:14:02.446Z,5.40
2022-12-18T01:17:05.794Z,6.32
2022-12-18T01:20:10.773Z,5.60
2022-12-18T01:23:14.624Z,5.70
2022-12-18T01:26:17.629Z,5.70
2022-12-18T01:29:20.465Z,5.70
2022-12-18T01:32:23.243Z,5.43
2022-12-18T01:35:27.786Z,5.18
2022-12-18T01:38:30.610Z,5.88
2022-12-18T01:41:53.802Z,5.77
2022-12-18T01:45:04.661Z,6.10
2022-12-18T01:48:09.811Z,5.70
2022-12-18T01:51:13.707Z,6.32
2022-12-18T01:54:17.094Z,5.43
2022-12-18T01:57:20.648Z,5.30
2022-12-18T02:00:24.819Z,5.57
2022-12-18T02:03:27.779Z,5.55
2022-12-18T02:06:44.021Z,5.60
2022-12-18T02:09:57.539Z,5.72
2022-12-18T02:13:22.194Z,5.60
2022-12-18T02:16:47.128Z,5.57
2022-12-18T02:20:15.628Z,5.93
2022-12-18T02:23:55.507Z,5.78
2022-12-18T02:27:02.737Z,5.43
2022-12-18T02:30:09.334Z,5.57
2022-12-18T02:33:13.744Z,5.83
2022-12-18T02:36:18.480Z,5.95
2022-12-18T02:39:24.829Z,5.57
2022-12-18T02:42:34.687Z,5.15
2022-12-18T02:46:01.752Z,4.93
2022-12-18T02:50:02.009Z,5.80
2022-12-18T02:53:36.871Z,5.47
2022-12-18T02:56:47.372Z,5.30
2022-12-18T03:00:12.514Z,5.13
2022-12-18T03:03:30.408Z,5.60
2022-12-18T03:06:42.877Z,5.80
2022-12-18T03:09:51.332Z,5.10
2022-12-18T03:13:03.048Z,5.88
2022-12-18T03:16:08.604Z,5.47
2022-12-18T03:19:18.131Z,5.43
2022-12-18T03:22:22.693Z,5.13
2022-12-18T03:25:31.053Z,5.60
2022-12-18T03:28:40.103Z,5.63
2022-12-18T03:31:54.781Z,5.30
2022-12-18T03:35:01.968Z,5.00
2022-12-18T03:38:08.477Z,5.10
2022-12-18T03:41:24.299Z,5.65
2022-12-18T03:45:03.011Z,5.40
2022-12-18T03:48:13.809Z,5.38
2022-12-18T03:51:21.937Z,5.70
2022-12-18T03:54:28.122Z,5.77
2022-12-18T03:57:38.972Z,5.55
2022-12-18T04:00:43.766Z,5.13
2022-12-18T04:03:50.642Z,5.65
2022-12-18T04:06:56.542Z,5.23
2022-12-18T04:10:02.726Z,5.37
2022-12-18T04:13:07.226Z,5.22
2022-12-18T04:16:12.017Z,5.20
2022-12-18T04:19:18.361Z,5.57
2022-12-18T04:22:24.569Z,5.37
2022-12-18T04:25:33.181Z,5.40
2022-12-18T04:28:51.852Z,5.35
2022-12-18T04:31:55.388Z,5.40
2022-12-18T04:34:59.081Z,5.75
2022-12-18T04:38:03.726Z,5.07
2022-12-18T04:41:07.254Z,5.20
2022-12-18T04:44:10.798Z,4.97
2022-12-18T04:47:13.619Z,5.20
2022-12-18T04:50:16.380Z,5.70
2022-12-18T04:53:21.705Z,5.00
2022-12-18T04:56:24.454Z,6.10
2022-12-18T04:59:27.158Z,5.80
2022-12-18T05:02:29.896Z,6.32
2022-12-18T05:05:32.831Z,5.03
2022-12-18T05:08:36.422Z,5.70
2022-12-18T05:11:39.260Z,5.23
2022-12-18T05:14:41.954Z,5.15
2022-12-18T05:17:44.594Z,4.93
2022-12-18T05:20:47.360Z,5.80
2022-12-18T05:23:50.314Z,5.00
2022-12-18T05:26:52.994Z,5.33
2022-12-18T05:29:55.762Z,5.47
2022-12-18T05:32:58.427Z,5.55
2022-12-18T05:36:06.658Z,5.32
2022-12-18T05:39:10.257Z,5.47
2022-12-18T05:42:12.966Z,5.13
2022-12-18T05:45:15.673Z,6.18
2022-12-18T05:48:18.425Z,5.60
2022-12-18T05:51:23.064Z,5.80
2022-12-18T05:54:28.478Z,6.30
2022-12-18T05:57:31.133Z,5.93
2022-12-18T06:00:36.000Z,6.38
2022-12-18T06:03:38.894Z,5.88
2022-12-18T06:06:44.704Z,5.80
2022-12-18T06:09:47.380Z,5.23
2022-12-18T06:12:50.131Z,5.40
2022-12-18T06:15:52.825Z,5.57
2022-12-18T06:18:59.905Z,5.47
2022-12-18T06:22:02.879Z,5.63
2022-12-18T06:25:07.095Z,6.00
2022-12-18T06:28:11.164Z,5.80
2022-12-18T06:31:14.436Z,5.72
2022-12-18T06:34:17.164Z,5.97
2022-12-18T06:37:19.854Z,6.30
2022-12-18T06:40:22.691Z,6.80
2022-12-18T06:43:25.642Z,6.70
2022-12-18T06:46:28.415Z,6.78
2022-12-18T06:49:31.146Z,6.75
2022-12-18T06:52:34.658Z,6.70
2022-12-18T06:55:37.499Z,7.13
2022-12-18T06:58:40.918Z,7.00
2022-12-18T07:01:43.930Z,6.63
2022-12-18T07:04:46.836Z,7.18
2022-12-18T07:07:49.516Z,7.32
2022-12-18T07:10:56.097Z,7.33
2022-12-18T07:13:59.234Z,7.03
2022-12-18T07:17:04.489Z,8.00
2022-12-18T07:20:09.334Z,7.32
2022-12-18T07:23:12.146Z,7.82
2022-12-18T07:26:16.490Z,8.30
2022-12-18T07:29:19.435Z,7.70
2022-12-18T07:32:22.203Z,7.88
2022-12-18T07:35:25.529Z,8.25
2022-12-18T07:38:28.418Z,8.35
2022-12-18T07:41:31.255Z,8.73
2022-12-18T07:44:43.601Z,8.85
2022-12-18T07:47:46.333Z,9.15
2022-12-18T07:50:49.153Z,8.55
2022-12-18T07:53:52.513Z,8.70
2022-12-18T07:56:55.418Z,10.00
2022-12-18T07:59:58.124Z,10.30
2022-12-18T08:03:01.072Z,10.82
2022-12-18T08:06:05.278Z,10.18
2022-12-18T08:09:11.433Z,9.02
2022-12-18T08:12:14.123Z,9.17
2022-12-18T08:15:17.015Z,8.25
2022-12-18T08:18:19.709Z,8.13
2022-12-18T08:21:31.355Z,8.23
2022-12-18T08:24:34.045Z,8.00
2022-12-18T08:27:37.208Z,7.70
2022-12-18T08:30:39.936Z,7.70
2022-12-18T08:33:43.708Z,8.00
2022-12-18T08:36:46.711Z,7.93
2022-12-18T08:39:49.715Z,8.05
2022-12-18T08:43:10.786Z,7.93
2022-12-18T08:46:14.134Z,7.40
2022-12-18T08:49:19.330Z,8.23
2022-12-18T08:52:22.002Z,7.22
2022-12-18T08:55:24.696Z,7.82
2022-12-18T08:58:27.483Z,7.33
2022-12-18T09:01:30.318Z,7.28
2022-12-18T09:04:33.320Z,6.82
2022-12-18T09:07:36.027Z,7.22
2022-12-18T09:10:45.832Z,7.38
2022-12-18T09:13:48.541Z,6.50
2022-12-18T09:16:51.298Z,7.22
2022-12-18T09:20:01.118Z,7.82
2022-12-18T09:23:05.416Z,7.40
2022-12-18T09:26:08.756Z,7.25
2022-12-18T09:29:11.457Z,6.77
2022-12-18T09:32:20.520Z,7.47
2022-12-18T09:35:25.059Z,6.90
2022-12-18T09:38:27.957Z,6.78
2022-12-18T09:41:54.489Z,7.10
2022-12-18T09:44:57.357Z,6.40
2022-12-18T09:48:00.277Z,6.63
2022-12-18T09:51:28.363Z,6.63
2022-12-18T09:54:44.835Z,6.70
2022-12-18T09:57:53.494Z,6.65
2022-12-18T10:00:56.617Z,6.60
2022-12-18T10:04:00.676Z,6.32
2022-12-18T10:07:17.458Z,7.00
2022-12-18T10:10:32.077Z,6.57
2022-12-18T10:13:53.407Z,7.00
2022-12-18T10:17:14.616Z,6.83
2022-12-18T10:20:39.800Z,6.65
2022-12-18T10:24:00.904Z,7.00
2022-12-18T10:27:16.783Z,6.03
2022-12-18T10:30:24.732Z,6.80
2022-12-18T10:33:31.299Z,6.20
2022-12-18T10:36:33.947Z,6.78
2022-12-18T10:39:36.923Z,6.32
2022-12-18T10:42:40.750Z,6.60
2022-12-18T10:46:18.663Z,6.28
2022-12-18T10:49:27.954Z,6.60
2022-12-18T10:52:31.108Z,6.57
2022-12-18T10:55:37.390Z,6.57
2022-12-18T10:58:41.230Z,5.57
2022-12-18T11:01:49.001Z,5.82
2022-12-18T11:04:53.398Z,6.50
2022-12-18T11:07:57.392Z,6.25
2022-12-18T11:11:00.277Z,5.93
2022-12-18T11:14:13.484Z,5.72
2022-12-18T11:17:33.650Z,5.93
2022-12-18T11:20:37.974Z,5.80
2022-12-18T11:23:49.751Z,5.95
2022-12-18T11:26:57.813Z,6.07
2022-12-18T11:30:20.937Z,6.00
2022-12-18T11:33:27.199Z,5.88
2022-12-18T11:36:35.582Z,5.77
2022-12-18T11:39:50.831Z,6.05
2022-12-18T11:43:18.006Z,6.47
2022-12-18T11:46:32.152Z,5.57
2022-12-18T11:49:36.491Z,5.50
2022-12-18T11:52:41.610Z,5.60
2022-12-18T11:56:06.091Z,5.90
2022-12-18T11:59:20.076Z,5.30
2022-12-18T12:02:36.257Z,5.90
2022-12-18T12:05:44.760Z,5.30
2022-12-18T12:09:22.315Z,5.70
2022-12-18T12:12:28.031Z,5.30
2022-12-18T12:15:59.892Z,6.25
2022-12-18T12:19:28.475Z,5.95
2022-12-18T12:22:50.640Z,5.85
2022-12-18T12:26:02.859Z,5.33
2022-12-18T12:29:11.122Z,5.80
2022-12-18T12:32:52.165Z,5.03
2022-12-18T12:36:03.644Z,5.55
2022-12-18T12:39:14.759Z,5.95
2022-12-18T12:43:04.114Z,5.30
2022-12-18T12:46:10.129Z,5.60
2022-12-18T12:49:18.657Z,5.88
2022-12-18T12:52:44.400Z,5.28
2022-12-18T12:55:47.596Z,5.45
2022-12-18T12:58:57.277Z,5.40
2022-12-18T13:06:05.735Z,5.63
2022-12-18T13:09:09.630Z,5.70
2022-12-18T13:12:33.321Z,5.28
2022-12-18T13:15:48.667Z,5.50
2022-12-18T13:18:53.473Z,4.93
2022-12-18T13:21:57.659Z,5.78
2022-12-18T13:25:01.027Z,4.70
2022-12-18T13:28:12.570Z,5.75
2022-12-18T13:31:30.908Z,4.77
2022-12-18T13:34:34.733Z,5.80
2022-12-18T13:37:42.035Z,5.68
2022-12-18T13:40:55.428Z,4.75
2022-12-18T13:44:14.141Z,5.45
2022-12-18T13:47:36.403Z,4.67
2022-12-18T13:50:40.177Z,5.05
2022-12-18T13:53:57.824Z,5.38
2022-12-18T13:57:01.129Z,5.57
2022-12-18T14:00:32.228Z,4.90
2022-12-18T14:03:35.886Z,4.97
2022-12-18T14:06:38.897Z,6.00
2022-12-18T14:09:44.892Z,5.75
2022-12-18T14:12:57.684Z,5.50
2022-12-18T14:16:04.414Z,5.78
2022-12-18T14:19:15.931Z,5.20
2022-12-18T14:22:28.985Z,5.05
2022-12-18T14:25:32.214Z,6.03
2022-12-18T14:28:45.335Z,5.43
2022-12-18T14:32:05.934Z,5.10
2022-12-18T14:35:14.877Z,5.27
2022-12-18T14:38:17.611Z,5.57
2022-12-18T14:41:21.949Z,5.45
2022-12-18T14:44:25.339Z,5.03
2022-12-18T14:47:28.473Z,5.22
2022-12-18T14:50:31.499Z,5.20
2022-12-18T14:53:43.045Z,4.88
2022-12-18T14:56:50.035Z,5.47
2022-12-18T14:59:53.145Z,5.38
2022-12-18T15:02:58.333Z,5.43
2022-12-18T15:06:26.251Z,5.20
2022-12-18T15:09:30.361Z,5.10
2022-12-18T15:12:38.223Z,5.57
2022-12-18T15:15:42.806Z,4.55
2022-12-18T15:18:47.635Z,5.20
2022-12-18T15:21:50.956Z,4.73
2022-12-18T15:24:55.812Z,4.82
2022-12-18T15:27:59.210Z,5.28
2022-12-18T15:31:25.213Z,5.25
2022-12-18T15:34:29.747Z,4.90
2022-12-18T15:37:33.374Z,4.70
2022-12-18T15:40:37.054Z,5.20
2022-12-18T15:43:41.294Z,5.10
2022-12-18T15:46:45.335Z,4.95
2022-12-18T15:49:49.139Z,5.20
2022-12-18T15:52:55.627Z,4.63
2022-12-18T15:56:19.522Z,5.07
2022-12-18T15:59:25.569Z,5.50
2022-12-18T16:02:30.298Z,5.28
2022-12-18T16:05:34.093Z,5.32
2022-12-18T16:08:38.111Z,4.97
2022-12-18T16:11:44.883Z,5.57
2022-12-18T16:14:48.788Z,5.05
2022-12-18T16:17:53.464Z,5.47
2022-12-18T16:20:57.067Z,5.93
2022-12-18T16:24:00.986Z,6.57
2022-12-18T16:27:04.483Z,6.45
2022-12-18T16:30:11.306Z,7.18
2022-12-18T16:33:14.885Z,6.70
2022-12-18T16:36:18.761Z,7.28
2022-12-18T16:39:23.047Z,7.40
2022-12-18T16:42:28.489Z,7.00
2022-12-18T16:45:34.655Z,7.10
2022-12-18T16:48:37.767Z,6.95
2022-12-18T16:51:41.560Z,7.05
2022-12-18T16:54:45.634Z,7.33
2022-12-18T16:57:49.313Z,7.07
2022-12-18T17:00:52.812Z,7.78
2022-12-18T17:04:02.031Z,7.53
2022-12-18T17:07:05.872Z,7.28
2022-12-18T17:10:11.244Z,7.43
2022-12-18T17:13:24.170Z,7.45
2022-12-18T17:16:31.113Z,7.47
2022-12-18T17:19:35.728Z,7.65
2022-12-18T17:22:39.534Z,6.95
2022-12-18T17:25:43.323Z,7.27
2022-12-18T17:28:48.169Z,7.93
2022-12-18T17:31:52.572Z,8.00
2022-12-18T17:35:02.580Z,7.40
2022-12-18T17:38:09.864Z,7.55
2022-12-18T17:41:14.207Z,7.83
2022-12-18T17:44:18.629Z,7.60
2022-12-18T17:47:22.182Z,8.65
2022-12-18T17:50:26.793Z,8.45
2022-12-18T17:53:31.285Z,8.25
2022-12-18T17:56:35.528Z,7.93
2022-12-18T17:59:42.639Z,8.48
2022-12-18T18:02:50.442Z,8.85
2022-12-18T18:06:02.479Z,7.40
2022-12-18T18:09:08.136Z,8.02
2022-12-18T18:12:35.492Z,8.80
2022-12-18T18:15:39.179Z,8.23
2022-12-18T18:18:55.705Z,8.43
2022-12-18T18:21:59.626Z,8.70
2022-12-18T18:25:04.532Z,8.57
2022-12-18T18:28:10.471Z,8.20
2022-12-18T18:31:15.201Z,8.48
2022-12-18T18:34:24.915Z,8.48
2022-12-18T18:37:28.538Z,7.80
2022-12-18T18:40:32.453Z,8.93
2022-12-18T18:43:39.536Z,8.03
2022-12-18T18:46:43.514Z,8.48
2022-12-18T18:49:47.994Z,8.65
2022-12-18T18:52:51.570Z,8.48
2022-12-18T18:56:34.528Z,8.57
2022-12-18T18:59:23.630Z,9.10
2022-12-18T19:02:35.091Z,9.00
2022-12-18T19:05:42.946Z,9.40
2022-12-18T19:08:49.097Z,9.25
2022-12-18T19:12:10.823Z,9.02
2022-12-18T19:15:14.323Z,9.33
2022-12-18T19:18:18.111Z,9.15
2022-12-18T19:21:21.874Z,10.52
2022-12-18T19:24:28.772Z,9.73
2022-12-18T19:27:32.253Z,10.23
2022-12-18T19:30:41.235Z,8.90
2022-12-18T19:33:48.078Z,9.43
2022-12-18T19:36:57.979Z,10.30
2022-12-18T19:40:08.154Z,9.98
2022-12-18T19:43:19.971Z,8.87
2022-12-18T19:46:27.471Z,9.43
2022-12-18T19:49:33.331Z,9.40
2022-12-18T19:52:37.805Z,9.23
2022-12-18T19:55:44.130Z,8.75
2022-12-18T19:58:49.786Z,9.67
2022-12-18T20:01:55.066Z,8.68
2022-12-18T20:04:59.021Z,9.77
2022-12-18T20:08:02.509Z,9.80
2022-12-18T20:11:05.813Z,9.77
2022-12-18T20:14:09.661Z,8.70
2022-12-18T20:17:12.751Z,8.80
2022-12-18T20:20:16.085Z,9.73
2022-12-18T20:23:19.801Z,9.73
2022-12-18T20:26:24.609Z,9.73
2022-12-18T20:29:28.377Z,8.80
2022-12-18T20:32:36.937Z,9.40
2022-12-18T20:35:40.527Z,10.00
2022-12-18T20:38:44.675Z,9.60
2022-12-18T20:41:49.770Z,9.73
2022-12-18T20:44:52.506Z,9.63
2022-12-18T20:48:00.135Z,10.32
2022-12-18T20:51:07.064Z,9.75
2022-12-18T20:54:11.931Z,9.50
2022-12-18T20:57:17.081Z,9.70
2022-12-18T21:00:21.338Z,9.05
2022-12-18T21:03:25.137Z,9.80
2022-12-18T21:06:28.512Z,9.80
2022-12-18T21:09:37.667Z,9.68
2022-12-18T21:12:50.897Z,10.30
2022-12-18T21:16:01.733Z,9.60
2022-12-18T21:19:04.546Z,9.52
2022-12-18T21:22:07.405Z,9.75
2022-12-18T21:25:10.515Z,10.30
2022-12-18T21:28:13.250Z,9.20
2022-12-18T21:31:17.430Z,9.90
2022-12-18T21:34:23.207Z,10.60
2022-12-18T21:37:25.986Z,10.00
2022-12-18T21:40:30.967Z,9.63
2022-12-18T21:43:53.004Z,9.40
2022-12-18T21:47:03.572Z,10.07
2022-12-18T21:50:12.935Z,9.60
2022-12-18T21:53:15.630Z,9.95
2022-12-18T21:56:18.385Z,9.57
2022-12-18T21:59:24.044Z,9.27
2022-12-18T22:02:26.958Z,10.15
2022-12-18T22:05:29.766Z,9.88
2022-12-18T22:08:32.828Z,10.10
2022-12-18T22:11:36.482Z,10.13
2022-12-18T22:14:39.191Z,9.03
2022-12-18T22:17:41.914Z,9.18
2022-12-18T22:20:48.522Z,9.73
2022-12-18T22:24:04.636Z,9.93
2022-12-18T22:27:07.399Z,9.53
2022-12-18T22:30:14.543Z,9.53
2022-12-18T22:33:17.291Z,9.25
2022-12-18T22:36:20.081Z,9.73
2022-12-18T22:39:30.359Z,9.65
2022-12-18T22:42:33.585Z,10.17
2022-12-18T22:45:38.395Z,10.17
2022-12-18T22:48:41.627Z,9.95
2022-12-18T22:51:44.898Z,9.75
2022-12-18T22:54:47.660Z,9.60
2022-12-18T22:57:51.058Z,9.40
2022-12-18T23:00:53.897Z,9.27
2022-12-18T23:03:57.631Z,10.07
2022-12-18T23:07:00.340Z,10.00
2022-12-18T23:10:05.620Z,9.35
2022-12-18T23:13:09.754Z,9.50
2022-12-18T23:16:17.660Z,10.13
2022-12-18T23:19:23.448Z,9.52
2022-12-18T23:22:27.725Z,9.48
2022-12-18T23:25:30.472Z,10.18
2022-12-18T23:28:34.277Z,10.30
2022-12-18T23:31:39.336Z,9.40
2022-12-18T23:34:42.247Z,9.52
2022-12-18T23:38:01.860Z,9.38
2022-12-18T23:41:14.022Z,10.27
2022-12-18T23:44:16.691Z,9.90
2022-12-18T23:47:19.306Z,8.75
2022-12-18T23:50:23.795Z,10.13
2022-12-18T23:53:32.782Z,9.75
2022-12-18T23:56:35.940Z,9.00
2022-12-18T23:59:38.778Z,9.13
